createdAt,value
2023-04-02T00:01:06.666Z,13.80
2023-04-02T00:03:33.189Z,13.90
2023-04-02T00:05:59.762Z,13.80
2023-04-02T00:08:26.244Z,13.90
2023-04-02T00:10:52.722Z,13.80
2023-04-02T00:13:19.198Z,13.80
2023-04-02T00:15:45.672Z,13.70
2023-04-02T00:18:12.173Z,13.70
2023-04-02T00:20:38.707Z,13.70
2023-04-02T00:23:05.198Z,13.70
2023-04-02T00:25:31.679Z,13.70
2023-04-02T00:27:58.164Z,13.80
2023-04-02T00:30:24.649Z,13.80
2023-04-02T00:32:51.133Z,13.90
2023-04-02T00:35:17.638Z,13.90
2023-04-02T00:37:44.136Z,13.90
2023-04-02T00:40:10.648Z,13.90
2023-04-02T00:42:37.132Z,13.80
2023-04-02T00:45:03.609Z,13.80
2023-04-02T00:47:30.117Z,13.90
2023-04-02T00:49:56.630Z,13.90
2023-04-02T00:52:23.095Z,13.90
2023-04-02T00:54:49.570Z,13.80
2023-04-02T00:57:16.100Z,13.70
2023-04-02T00:59:42.618Z,13.80
2023-04-02T01:02:09.142Z,13.80
2023-04-02T01:04:35.684Z,13.90
2023-04-02T01:07:02.188Z,14.00
2023-04-02T01:09:28.642Z,13.90
2023-04-02T01:11:55.120Z,13.90
2023-04-02T01:14:21.609Z,13.80
2023-04-02T01:16:48.090Z,13.90
2023-04-02T01:19:14.562Z,13.90
2023-04-02T01:21:41.026Z,13.90
2023-04-02T01:24:07.508Z,13.90
2023-04-02T01:26:33.975Z,13.90
2023-04-02T01:29:00.469Z,13.70
2023-04-02T01:31:26.978Z,13.70
2023-04-02T01:33:53.470Z,13.90
2023-04-02T01:36:20.030Z,13.80
2023-04-02T01:38:46.575Z,13.90
2023-04-02T01:41:13.092Z,13.80
2023-04-02T01:43:39.567Z,13.80
2023-04-02T01:46:06.113Z,13.90
2023-04-02T01:48:32.606Z,13.80
2023-04-02T01:50:59.099Z,13.80
2023-04-02T01:53:25.587Z,13.70
2023-04-02T01:55:52.043Z,13.80
2023-04-02T01:58:18.659Z,13.80
2023-04-02T02:00:45.176Z,13.80
2023-04-02T02:03:11.782Z,13.80
2023-04-02T02:05:38.256Z,13.80
2023-04-02T02:08:04.754Z,13.80
2023-04-02T02:10:31.220Z,13.70
2023-04-02T02:12:57.706Z,13.70
2023-04-02T02:15:24.185Z,13.70
2023-04-02T02:17:50.705Z,13.70
2023-04-02T02:20:17.230Z,13.80
2023-04-02T02:22:43.706Z,13.70
2023-04-02T02:25:10.140Z,13.70
2023-04-02T02:27:36.638Z,13.80
2023-04-02T02:30:07.881Z,13.70
2023-04-02T02:32:34.364Z,13.60
2023-04-02T02:35:00.856Z,13.70
2023-04-02T02:37:27.334Z,13.70
2023-04-02T02:39:53.810Z,13.70
2023-04-02T02:42:20.283Z,13.60
2023-04-02T02:44:46.757Z,13.70
2023-04-02T02:47:13.250Z,13.70
2023-04-02T02:49:39.715Z,13.70
2023-04-02T02:52:06.185Z,13.60
2023-04-02T02:54:32.657Z,13.60
2023-04-02T02:56:59.214Z,13.70
2023-04-02T02:59:25.698Z,13.70
2023-04-02T03:01:52.166Z,13.60
2023-04-02T03:04:18.732Z,13.60
2023-04-02T03:06:45.273Z,13.70
2023-04-02T03:09:13.863Z,13.70
2023-04-02T03:11:40.342Z,13.70
2023-04-02T03:14:06.831Z,13.70
2023-04-02T03:16:33.299Z,13.70
2023-04-02T03:18:59.782Z,13.80
2023-04-02T03:21:26.277Z,13.70
2023-04-02T03:23:52.775Z,13.70
2023-04-02T03:26:19.251Z,13.70
2023-04-02T03:28:45.747Z,13.70
2023-04-02T03:31:12.266Z,13.70
2023-04-02T03:36:29.174Z,13.60
2023-04-02T03:38:55.899Z,13.50
2023-04-02T03:41:22.370Z,13.70
2023-04-02T03:43:48.854Z,13.60
2023-04-02T03:46:20.079Z,13.60
2023-04-02T03:48:46.598Z,13.50
2023-04-02T03:51:13.080Z,13.50
2023-04-02T03:53:39.587Z,13.60
2023-04-02T03:56:06.050Z,13.60
2023-04-02T03:58:32.555Z,13.60
2023-04-02T04:00:59.030Z,13.50
2023-04-02T04:03:25.519Z,13.70
2023-04-02T04:05:52.004Z,13.50
2023-04-02T04:08:18.532Z,13.50
2023-04-02T04:10:45.032Z,13.50
2023-04-02T04:13:11.515Z,13.50
2023-04-02T04:15:38.197Z,13.60
2023-04-02T04:18:04.780Z,13.70
2023-04-02T04:20:31.317Z,13.70
2023-04-02T04:23:01.984Z,13.80
2023-04-02T04:25:28.488Z,13.80
2023-04-02T04:27:54.966Z,13.90
2023-04-02T04:30:25.971Z,13.80
2023-04-02T04:32:52.475Z,13.90
2023-04-02T04:35:18.953Z,14.00
2023-04-02T04:37:45.422Z,14.00
2023-04-02T04:40:11.890Z,14.10
2023-04-02T04:42:38.392Z,14.10
2023-04-02T04:45:04.883Z,14.20
2023-04-02T04:47:31.394Z,14.30
2023-04-02T04:49:57.906Z,14.40
2023-04-02T04:52:24.380Z,14.40
2023-04-02T04:54:50.882Z,14.60
2023-04-02T04:57:17.398Z,14.70
2023-04-02T04:59:43.898Z,14.70
2023-04-02T05:02:14.171Z,14.70
2023-04-02T05:04:40.693Z,14.80
2023-04-02T05:07:07.249Z,14.90
2023-04-02T05:09:33.731Z,15.00
2023-04-02T05:12:00.215Z,15.10
2023-04-02T05:14:26.728Z,15.00
2023-04-02T05:16:53.242Z,15.00
2023-04-02T05:19:19.725Z,15.00
2023-04-02T05:21:46.192Z,15.10
2023-04-02T05:24:12.677Z,15.10
2023-04-02T05:26:39.156Z,15.20
2023-04-02T05:29:05.684Z,15.30
2023-04-02T05:31:32.234Z,15.30
2023-04-02T05:33:58.712Z,15.50
2023-04-02T05:36:25.269Z,15.30
2023-04-02T05:38:51.878Z,15.40
2023-04-02T05:41:18.360Z,15.50
2023-04-02T05:43:44.825Z,15.50
2023-04-02T05:46:11.313Z,15.60
2023-04-02T05:48:37.892Z,15.60
2023-04-02T05:51:04.377Z,15.50
2023-04-02T05:53:30.847Z,15.70
2023-04-02T05:55:57.366Z,15.60
2023-04-02T05:58:35.231Z,15.60
2023-04-02T06:01:02.933Z,15.50
2023-04-02T06:03:29.454Z,15.70
2023-04-02T06:05:55.990Z,15.60
2023-04-02T06:08:22.469Z,15.70
2023-04-02T06:10:48.983Z,15.90
2023-04-02T06:13:15.458Z,15.90
2023-04-02T06:15:41.918Z,15.70
2023-04-02T06:18:08.444Z,15.90
2023-04-02T06:20:34.949Z,15.70
2023-04-02T06:23:01.426Z,15.80
2023-04-02T06:25:27.993Z,15.80
2023-04-02T06:27:54.476Z,16.00
2023-04-02T06:30:20.950Z,15.80
2023-04-02T06:32:47.452Z,16.00
2023-04-02T06:35:13.989Z,16.00
2023-04-02T06:37:40.460Z,16.00
2023-04-02T06:40:08.049Z,15.90
2023-04-02T06:42:34.534Z,15.90
2023-04-02T06:45:00.997Z,15.90
2023-04-02T06:47:27.509Z,16.00
2023-04-02T06:49:53.992Z,16.00
2023-04-02T06:52:20.472Z,16.10
2023-04-02T06:54:46.983Z,16.20
2023-04-02T06:57:13.530Z,16.20
2023-04-02T06:59:40.028Z,16.20
2023-04-02T07:02:06.552Z,16.30
2023-04-02T07:04:33.087Z,16.20
2023-04-02T07:06:59.594Z,16.30
2023-04-02T07:09:26.069Z,16.30
2023-04-02T07:11:52.549Z,16.10
2023-04-02T07:14:19.033Z,16.20
2023-04-02T07:16:45.502Z,16.30
2023-04-02T07:19:11.974Z,16.30
2023-04-02T07:21:38.444Z,16.30
2023-04-02T07:24:04.914Z,16.30
2023-04-02T07:26:31.393Z,16.30
2023-04-02T07:28:57.878Z,16.30
2023-04-02T07:31:26.142Z,16.30
2023-04-02T07:33:52.623Z,16.30
2023-04-02T07:36:19.150Z,16.30
2023-04-02T07:38:45.671Z,16.50
2023-04-02T07:41:12.212Z,16.50
2023-04-02T07:43:38.689Z,16.50
2023-04-02T07:46:05.177Z,16.50
2023-04-02T07:48:31.653Z,16.30
2023-04-02T07:50:58.118Z,16.50
2023-04-02T07:53:24.597Z,16.40
2023-04-02T07:55:51.061Z,16.40
2023-04-02T07:58:17.533Z,16.50
2023-04-02T08:00:43.998Z,16.60
2023-04-02T08:03:10.503Z,16.50
2023-04-02T08:08:27.448Z,16.60
2023-04-02T08:10:53.942Z,16.60
2023-04-02T08:13:20.447Z,16.70
2023-04-02T08:15:46.939Z,16.70
2023-04-02T08:18:13.423Z,16.70
2023-04-02T08:20:39.923Z,16.70
2023-04-02T08:23:06.409Z,16.70
2023-04-02T08:25:33.169Z,16.70
2023-04-02T08:27:59.886Z,16.60
2023-04-02T08:30:26.363Z,16.60
2023-04-02T08:32:52.878Z,16.50
2023-04-02T08:35:19.387Z,16.50
2023-04-02T08:37:45.908Z,16.50
2023-04-02T08:40:14.094Z,16.50
2023-04-02T08:42:40.574Z,16.40
2023-04-02T08:45:22.923Z,16.40
2023-04-02T08:47:49.879Z,16.30
2023-04-02T08:50:16.344Z,16.30
2023-04-02T08:52:42.832Z,16.20
2023-04-02T08:55:09.291Z,16.20
2023-04-02T08:57:35.865Z,16.20
2023-04-02T09:00:02.440Z,16.10
2023-04-02T09:02:28.923Z,16.10
2023-04-02T09:04:55.505Z,16.10
2023-04-02T09:07:22.077Z,16.10
2023-04-02T09:09:48.554Z,16.10
2023-04-02T09:12:15.037Z,16.00
2023-04-02T09:14:41.529Z,16.00
2023-04-02T09:17:08.024Z,16.00
2023-04-02T09:19:34.498Z,15.90
2023-04-02T09:22:00.995Z,15.90
2023-04-02T09:24:27.462Z,15.90
2023-04-02T09:26:53.954Z,15.90
2023-04-02T09:29:20.425Z,15.90
2023-04-02T09:31:46.931Z,15.80
2023-04-02T09:34:13.435Z,15.80
2023-04-02T09:36:39.909Z,15.70
2023-04-02T09:39:06.413Z,15.80
2023-04-02T09:41:34.111Z,15.70
2023-04-02T09:44:01.593Z,15.70
2023-04-02T09:46:28.109Z,15.70
2023-04-02T09:48:54.641Z,15.70
2023-04-02T09:51:21.109Z,15.60
2023-04-02T09:53:47.602Z,15.60
2023-04-02T09:56:14.080Z,15.60
2023-04-02T09:58:40.572Z,15.70
2023-04-02T10:01:07.089Z,15.60
2023-04-02T10:03:33.611Z,15.70
2023-04-02T10:06:00.121Z,15.70
2023-04-02T10:08:26.620Z,15.60
2023-04-02T10:10:53.111Z,15.50
2023-04-02T10:13:19.608Z,15.60
2023-04-02T10:15:46.084Z,15.60
2023-04-02T10:18:12.556Z,15.50
2023-04-02T10:20:50.513Z,15.50
2023-04-02T10:23:17.953Z,15.60
2023-04-02T10:25:44.424Z,15.50
2023-04-02T10:28:10.912Z,15.50
2023-04-02T10:30:37.462Z,15.60
2023-04-02T10:33:04.037Z,15.50
2023-04-02T10:35:30.528Z,15.50
2023-04-02T10:37:57.068Z,15.50
2023-04-02T10:40:23.532Z,15.50
2023-04-02T10:42:50.013Z,15.50
2023-04-02T10:45:16.473Z,15.50
2023-04-02T10:47:42.978Z,15.40
2023-04-02T10:50:09.482Z,15.50
2023-04-02T10:52:35.950Z,15.50
2023-04-02T10:55:02.423Z,15.50
2023-04-02T10:57:30.104Z,15.50
2023-04-02T10:59:56.681Z,15.40
2023-04-02T11:02:23.202Z,15.40
2023-04-02T11:04:50.256Z,15.40
2023-04-02T11:07:16.857Z,15.40
2023-04-02T11:09:43.363Z,15.40
2023-04-02T11:12:09.851Z,15.40
2023-04-02T11:14:36.344Z,15.40
2023-04-02T11:17:02.795Z,15.30
2023-04-02T11:19:29.264Z,15.30
2023-04-02T11:22:00.020Z,15.30
2023-04-02T11:24:26.943Z,15.30
2023-04-02T11:26:53.424Z,15.30
2023-04-02T11:29:19.901Z,15.30
2023-04-02T11:31:46.438Z,15.30
2023-04-02T11:34:12.943Z,15.30
2023-04-02T11:36:39.411Z,15.30
2023-04-02T11:39:16.513Z,15.30
2023-04-02T11:41:44.071Z,15.20
2023-04-02T11:44:10.570Z,15.30
2023-04-02T11:46:37.116Z,15.30
2023-04-02T11:49:03.634Z,15.30
2023-04-02T11:51:30.245Z,15.20
2023-04-02T11:53:56.819Z,15.20
2023-04-02T11:56:23.289Z,15.20
2023-04-02T11:58:49.888Z,15.20
2023-04-02T12:01:16.348Z,15.20
2023-04-02T12:03:42.825Z,15.20
2023-04-02T12:06:09.307Z,15.10
2023-04-02T12:08:44.237Z,15.10
2023-04-02T12:11:17.309Z,15.20
2023-04-02T12:13:43.774Z,15.20
2023-04-02T12:16:10.249Z,15.20
2023-04-02T12:18:36.724Z,15.10
2023-04-02T12:21:03.228Z,15.10
2023-04-02T12:23:29.703Z,15.10
2023-04-02T12:25:56.192Z,15.10
2023-04-02T12:28:22.678Z,15.10
2023-04-02T12:30:49.194Z,15.00
2023-04-02T12:33:15.755Z,15.00
2023-04-02T12:35:42.286Z,15.00
2023-04-02T12:38:08.782Z,15.00
2023-04-02T12:40:35.609Z,15.00
2023-04-02T12:43:02.280Z,15.00
2023-04-02T12:45:29.737Z,15.00
2023-04-02T12:47:56.549Z,15.00
2023-04-02T12:50:23.052Z,15.10
2023-04-02T12:52:49.570Z,15.10
2023-04-02T12:55:16.087Z,15.10
2023-04-02T12:57:42.755Z,15.00
2023-04-02T13:00:09.352Z,14.90
2023-04-02T13:02:35.845Z,15.00
2023-04-02T13:05:02.387Z,15.00
2023-04-02T13:07:28.861Z,15.00
2023-04-02T13:09:55.354Z,15.10
2023-04-02T13:12:21.842Z,15.00
2023-04-02T13:14:48.301Z,15.00
2023-04-02T13:17:14.778Z,15.00
2023-04-02T13:19:41.239Z,15.00
2023-04-02T13:22:07.729Z,15.00
2023-04-02T13:24:34.208Z,15.00
2023-04-02T13:27:00.676Z,14.90
2023-04-02T13:29:27.176Z,15.00
2023-04-02T13:31:53.707Z,15.00
2023-04-02T13:34:20.198Z,14.90
2023-04-02T13:36:46.691Z,15.00
2023-04-02T13:39:13.166Z,15.00
2023-04-02T13:41:39.627Z,15.00
2023-04-02T13:44:06.117Z,15.00
2023-04-02T13:46:32.651Z,14.90
2023-04-02T13:48:59.159Z,14.90
2023-04-02T13:51:25.671Z,14.90
2023-04-02T13:53:52.135Z,15.00
2023-04-02T13:56:18.637Z,15.00
2023-04-02T13:58:45.123Z,14.90
2023-04-02T14:01:11.633Z,14.80
2023-04-02T14:03:38.135Z,14.80
2023-04-02T14:06:04.674Z,14.80
2023-04-02T14:08:31.170Z,14.70
2023-04-02T14:10:57.670Z,14.70
2023-04-02T14:13:24.147Z,14.60
2023-04-02T14:15:50.632Z,14.80
2023-04-02T14:18:17.101Z,14.80
2023-04-02T14:20:43.610Z,14.70
2023-04-02T14:23:10.098Z,14.80
2023-04-02T14:25:36.789Z,14.80
2023-04-02T14:28:03.495Z,14.80
2023-04-02T14:30:30.018Z,14.50
2023-04-02T14:32:56.547Z,14.60
2023-04-02T14:35:23.076Z,14.70
2023-04-02T14:37:49.560Z,14.70
2023-04-02T14:40:16.070Z,14.90
2023-04-02T14:42:42.558Z,14.80
2023-04-02T14:45:09.032Z,14.90
2023-04-02T14:47:35.597Z,15.00
2023-04-02T14:50:02.090Z,14.80
2023-04-02T14:52:28.573Z,14.80
2023-04-02T14:54:55.066Z,14.80
2023-04-02T14:57:21.686Z,14.90
2023-04-02T14:59:48.281Z,14.80
2023-04-02T15:02:14.773Z,14.90
2023-04-02T15:04:41.256Z,14.90
2023-04-02T15:07:07.783Z,14.90
2023-04-02T15:09:34.261Z,14.90
2023-04-02T15:12:00.795Z,15.00
2023-04-02T15:14:27.302Z,15.00
2023-04-02T15:16:53.826Z,15.10
2023-04-02T15:19:20.490Z,15.00
2023-04-02T15:21:57.478Z,15.00
2023-04-02T15:24:25.957Z,14.90
2023-04-02T15:26:52.448Z,15.10
2023-04-02T15:29:28.390Z,15.10
2023-04-02T15:31:56.056Z,15.10
2023-04-02T15:34:22.585Z,14.90
2023-04-02T15:36:49.072Z,15.00
2023-04-02T15:39:15.571Z,15.10
2023-04-02T15:41:42.053Z,15.20
2023-04-02T15:44:08.527Z,15.20
2023-04-02T15:46:35.009Z,15.20
2023-04-02T15:49:01.499Z,15.20
2023-04-02T15:51:28.001Z,15.30
2023-04-02T15:53:54.475Z,15.20
2023-04-02T15:56:26.731Z,15.20
2023-04-02T15:58:56.526Z,15.20
2023-04-02T16:01:23.076Z,15.10
2023-04-02T16:03:49.582Z,15.20
2023-04-02T16:06:16.089Z,15.20
2023-04-02T16:08:42.577Z,15.10
2023-04-02T16:11:09.068Z,15.10
2023-04-02T16:13:38.524Z,15.10
2023-04-02T16:16:05.146Z,15.00
2023-04-02T16:18:31.624Z,15.00
2023-04-02T16:20:58.106Z,15.00
2023-04-02T16:23:24.624Z,15.00
2023-04-02T16:25:51.101Z,15.00
2023-04-02T16:28:17.607Z,15.00
2023-04-02T16:30:44.099Z,14.90
2023-04-02T16:33:10.600Z,14.90
2023-04-02T16:35:43.122Z,15.00
2023-04-02T16:38:10.281Z,15.00
2023-04-02T16:40:38.713Z,15.00
2023-04-02T16:43:05.235Z,15.00
2023-04-02T16:45:31.735Z,15.00
2023-04-02T16:47:58.259Z,15.00
2023-04-02T16:50:24.776Z,15.00
2023-04-02T16:52:51.286Z,15.00
2023-04-02T16:55:17.752Z,14.90
2023-04-02T16:57:44.236Z,15.00
2023-04-02T17:00:10.719Z,15.00
2023-04-02T17:02:37.252Z,14.90
2023-04-02T17:05:03.812Z,14.90
2023-04-02T17:07:30.285Z,14.90
2023-04-02T17:09:56.757Z,14.90
2023-04-02T17:12:23.244Z,14.90
2023-04-02T17:14:49.728Z,14.90
2023-04-02T17:17:16.193Z,14.70
2023-04-02T17:19:42.684Z,14.80
2023-04-02T17:22:09.156Z,14.80
2023-04-02T17:24:35.645Z,14.80
2023-04-02T17:27:02.116Z,14.80
2023-04-02T17:29:28.593Z,14.80
2023-04-02T17:31:55.173Z,14.80
2023-04-02T17:34:21.691Z,14.80
2023-04-02T17:36:48.165Z,14.80
2023-04-02T17:39:14.645Z,14.80
2023-04-02T17:41:41.116Z,14.80
2023-04-02T17:44:07.594Z,14.80
2023-04-02T17:46:34.109Z,14.80
2023-04-02T17:49:00.590Z,14.80
2023-04-02T17:51:27.063Z,14.80
2023-04-02T17:53:53.548Z,14.80
2023-04-02T17:56:20.018Z,14.80
2023-04-02T17:58:46.500Z,14.80
2023-04-02T18:01:12.968Z,14.80
2023-04-02T18:03:39.547Z,14.80
2023-04-02T18:06:06.101Z,14.80
2023-04-02T18:08:32.606Z,14.80
2023-04-02T18:10:59.084Z,14.80
2023-04-02T18:13:25.597Z,14.80
2023-04-02T18:15:52.084Z,14.80
2023-04-02T18:18:18.555Z,14.80
2023-04-02T18:20:45.053Z,14.80
2023-04-02T18:23:11.515Z,14.80
2023-04-02T18:25:38.033Z,14.80
2023-04-02T18:28:04.499Z,14.80
2023-04-02T18:30:30.976Z,14.80
2023-04-02T18:32:57.471Z,14.90
2023-04-02T18:35:23.951Z,14.80
2023-04-02T18:37:50.419Z,14.80
2023-04-02T18:40:20.661Z,14.80
2023-04-02T18:42:47.154Z,14.80
2023-04-02T18:45:13.632Z,14.80
2023-04-02T18:47:40.172Z,14.80
2023-04-02T18:50:06.667Z,14.80
2023-04-02T18:52:33.125Z,14.80
2023-04-02T18:54:59.591Z,14.80
2023-04-02T18:57:26.150Z,14.70
2023-04-02T18:59:52.660Z,14.80
2023-04-02T19:02:20.969Z,14.70
2023-04-02T19:04:47.491Z,14.70
2023-04-02T19:07:13.967Z,14.70
2023-04-02T19:09:40.439Z,14.70
2023-04-02T19:12:06.923Z,14.70
2023-04-02T19:14:33.403Z,14.70
2023-04-02T19:16:59.899Z,14.70
2023-04-02T19:19:26.637Z,14.70
2023-04-02T19:21:53.119Z,14.70
2023-04-02T19:24:19.612Z,14.80
2023-04-02T19:26:46.094Z,14.70
2023-04-02T19:29:12.566Z,14.70
2023-04-02T19:31:39.110Z,14.70
2023-04-02T19:34:05.692Z,14.70
2023-04-02T19:36:32.187Z,14.70
2023-04-02T19:38:58.641Z,14.70
2023-04-02T19:41:25.107Z,14.60
2023-04-02T19:43:51.603Z,14.60
2023-04-02T19:46:20.729Z,14.60
2023-04-02T19:48:47.238Z,14.60
2023-04-02T19:51:13.739Z,14.60
2023-04-02T19:53:40.224Z,14.60
2023-04-02T19:56:08.710Z,14.60
2023-04-02T19:58:35.191Z,14.60
2023-04-02T20:01:01.778Z,14.60
2023-04-02T20:03:28.320Z,14.60
2023-04-02T20:05:54.808Z,14.60
2023-04-02T20:08:21.312Z,14.60
2023-04-02T20:10:47.799Z,14.50
2023-04-02T20:13:14.270Z,14.50
2023-04-02T20:15:44.729Z,14.50
2023-04-02T20:18:11.191Z,14.50
2023-04-02T20:20:37.968Z,14.50
2023-04-02T20:23:04.653Z,14.50
2023-04-02T20:25:31.171Z,14.50
2023-04-02T20:27:57.646Z,14.50
2023-04-02T20:30:24.116Z,14.50
2023-04-02T20:32:50.735Z,14.50
2023-04-02T20:35:17.268Z,14.50
2023-04-02T20:37:43.742Z,14.50
2023-04-02T20:40:10.214Z,14.50
2023-04-02T20:42:36.680Z,14.50
2023-04-02T20:45:03.148Z,14.50
2023-04-02T20:47:29.664Z,14.50
2023-04-02T20:49:56.140Z,14.40
2023-04-02T20:52:22.608Z,14.40
2023-04-02T20:54:49.076Z,14.40
2023-04-02T20:57:15.569Z,14.40
2023-04-02T20:59:42.051Z,14.30
2023-04-02T21:02:08.534Z,14.40
2023-04-02T21:04:35.031Z,14.40
2023-04-02T21:07:01.567Z,14.40
2023-04-02T21:09:28.022Z,14.30
2023-04-02T21:11:54.501Z,14.40
2023-04-02T21:14:20.975Z,14.40
2023-04-02T21:16:50.796Z,14.40
2023-04-02T21:19:17.259Z,14.40
2023-04-02T21:21:43.731Z,14.40
2023-04-02T21:24:10.195Z,14.20
2023-04-02T21:26:36.699Z,14.30
2023-04-02T21:29:03.220Z,14.20
2023-04-02T21:31:29.726Z,14.30
2023-04-02T21:33:56.206Z,14.40
2023-04-02T21:36:22.747Z,14.30
2023-04-02T21:38:49.260Z,14.30
2023-04-02T21:41:15.770Z,14.30
2023-04-02T21:43:42.236Z,14.20
2023-04-02T21:46:08.730Z,14.20
2023-04-02T21:48:35.197Z,14.20
2023-04-02T21:51:01.688Z,14.20
2023-04-02T21:53:28.193Z,14.20
2023-04-02T21:55:54.689Z,14.20
2023-04-02T21:58:21.164Z,14.20
2023-04-02T22:00:47.691Z,14.20
2023-04-02T22:03:21.499Z,14.20
2023-04-02T22:05:55.624Z,14.20
2023-04-02T22:08:22.102Z,14.10
2023-04-02T22:10:48.596Z,14.20
2023-04-02T22:13:15.086Z,14.20
2023-04-02T22:15:41.586Z,14.20
2023-04-02T22:18:08.049Z,14.20
2023-04-02T22:20:34.798Z,14.10
2023-04-02T22:23:01.508Z,14.10
2023-04-02T22:25:28.019Z,14.10
2023-04-02T22:27:54.474Z,14.10
2023-04-02T22:30:20.959Z,14.20
2023-04-02T22:32:47.476Z,14.20
2023-04-02T22:35:13.991Z,14.10
2023-04-02T22:37:40.492Z,14.10
2023-04-02T22:40:06.981Z,14.20
2023-04-02T22:42:33.550Z,14.10
2023-04-02T22:45:00.036Z,14.10
2023-04-02T22:47:26.546Z,14.10
2023-04-02T22:49:53.075Z,14.10
2023-04-02T22:52:19.554Z,14.10
2023-04-02T22:54:46.032Z,14.00
2023-04-02T22:57:12.557Z,14.10
2023-04-02T22:59:39.041Z,14.00
2023-04-02T23:02:05.656Z,14.00
2023-04-02T23:04:32.204Z,14.00
2023-04-02T23:06:58.693Z,13.90
2023-04-02T23:09:25.166Z,14.00
2023-04-02T23:11:51.641Z,14.00
2023-04-02T23:14:18.120Z,14.00
2023-04-02T23:16:44.583Z,14.10
2023-04-02T23:19:11.058Z,14.00
2023-04-02T23:21:37.541Z,14.00
2023-04-02T23:24:04.019Z,14.00
2023-04-02T23:26:30.505Z,14.00
2023-04-02T23:28:56.983Z,14.00
2023-04-02T23:31:23.592Z,14.00
2023-04-02T23:33:50.206Z,14.00
2023-04-02T23:36:16.778Z,14.00
2023-04-02T23:38:43.268Z,14.00
2023-04-02T23:41:09.777Z,14.00
2023-04-02T23:43:36.256Z,13.90
2023-04-02T23:46:02.725Z,13.90
2023-04-02T23:48:29.187Z,13.80
2023-04-02T23:50:55.659Z,13.90
2023-04-02T23:53:22.141Z,13.80
2023-04-02T23:55:48.618Z,13.90
2023-04-02T23:58:15.080Z,13.80
